Springbrook, Wisconsin
Current Conditions -  °F | °C
As of 10:53 PM on Friday 28 Nov 2014 (Local Time) from KHYR Reporting Station
Overcast Overcast  
Wind Chill: 10°   Ceiling: 3400
Heat Index: 19°   Visibility: 9mi
Dew Point: 14°   Wind: 7mph
Humidity: 81%   Direction: 140°SE
Pressure: 29.76"   Gusts: NA
Location:  45.95°N, 91.69°W
Report Text: KHYR 290453Z AUTO 14006KT 9SM OVC034 M07/M10 A2976 RMK AO2 SLP101 T10721100
Loading
Personal Weather Stations






























Interactive Weather Map New forecast layout! Learn more

10-Day Weather Forecast

Advertisements
Track Severe Weather on mobile